sensor_id;sensor_type;location;lat;lon;timestamp;pressure;altitude;pressure_sealevel;temperature;humidity
50977;BME280;36992;48.200;12.418;2023-04-29T00:02:07;96410.72;;;14.86;59.95
50977;BME280;36992;48.200;12.418;2023-04-29T00:04:34;96407.88;;;14.82;60.02
50977;BME280;36992;48.200;12.418;2023-04-29T00:07:00;96406.28;;;14.81;60.08
50977;BME280;36992;48.200;12.418;2023-04-29T00:09:27;96391.00;;;14.76;60.06
50977;BME280;36992;48.200;12.418;2023-04-29T00:11:53;96395.63;;;14.76;59.98
50977;BME280;36992;48.200;12.418;2023-04-29T00:14:20;96392.41;;;14.74;60.36
50977;BME280;36992;48.200;12.418;2023-04-29T00:16:46;96389.25;;;14.72;60.10
50977;BME280;36992;48.200;12.418;2023-04-29T00:19:14;96395.78;;;14.70;60.13
50977;BME280;36992;48.200;12.418;2023-04-29T00:21:42;96389.88;;;14.68;59.72
50977;BME280;36992;48.200;12.418;2023-04-29T00:24:09;96392.13;;;14.66;59.70
50977;BME280;36992;48.200;12.418;2023-04-29T00:26:35;96397.56;;;14.66;59.78
50977;BME280;36992;48.200;12.418;2023-04-29T00:29:01;96395.97;;;14.65;60.03
50977;BME280;36992;48.200;12.418;2023-04-29T00:31:28;96403.63;;;14.63;59.46
50977;BME280;36992;48.200;12.418;2023-04-29T00:33:56;96405.22;;;14.64;59.64
50977;BME280;36992;48.200;12.418;2023-04-29T00:36:25;96401.41;;;14.65;59.79
50977;BME280;36992;48.200;12.418;2023-04-29T00:38:51;96401.25;;;14.62;59.86
50977;BME280;36992;48.200;12.418;2023-04-29T00:41:18;96402.03;;;14.62;59.11
50977;BME280;36992;48.200;12.418;2023-04-29T00:43:44;96404.75;;;14.62;59.43
50977;BME280;36992;48.200;12.418;2023-04-29T00:46:11;96400.44;;;14.61;59.46
50977;BME280;36992;48.200;12.418;2023-04-29T00:48:37;96403.16;;;14.61;59.52
50977;BME280;36992;48.200;12.418;2023-04-29T00:51:06;96404.28;;;14.60;59.57
50977;BME280;36992;48.200;12.418;2023-04-29T00:53:34;96398.88;;;14.60;59.44
50977;BME280;36992;48.200;12.418;2023-04-29T00:56:01;96402.69;;;14.59;59.22
50977;BME280;36992;48.200;12.418;2023-04-29T00:58:28;96398.41;;;14.58;59.24
50977;BME280;36992;48.200;12.418;2023-04-29T01:00:58;96400.31;;;14.57;59.56
50977;BME280;36992;48.200;12.418;2023-04-29T01:03:25;96397.91;;;14.56;59.61
50977;BME280;36992;48.200;12.418;2023-04-29T01:06:08;96400.44;;;14.61;59.47
50977;BME280;36992;48.200;12.418;2023-04-29T01:08:45;96402.69;;;14.59;59.41
50977;BME280;36992;48.200;12.418;2023-04-29T01:11:13;96400.72;;;14.68;58.52
50977;BME280;36992;48.200;12.418;2023-04-29T01:13:45;96394.09;;;14.57;59.28
50977;BME280;36992;48.200;12.418;2023-04-29T01:16:20;96393.63;;;14.55;59.40
50977;BME280;36992;48.200;12.418;2023-04-29T01:18:51;96397.00;;;14.52;59.77
50977;BME280;36992;48.200;12.418;2023-04-29T01:21:19;96389.19;;;14.50;59.56
50977;BME280;36992;48.200;12.418;2023-04-29T01:23:48;96390.78;;;14.51;59.44
50977;BME280;36992;48.200;12.418;2023-04-29T01:26:20;96393.03;;;14.49;59.64
50977;BME280;36992;48.200;12.418;2023-04-29T01:28:51;96388.88;;;14.52;59.66
50977;BME280;36992;48.200;12.418;2023-04-29T01:31:24;96391.56;;;14.52;59.23
50977;BME280;36992;48.200;12.418;2023-04-29T01:33:59;96391.56;;;14.52;59.23
50977;BME280;36992;48.200;12.418;2023-04-29T01:36:38;96395.72;;;14.49;59.45
50977;BME280;36992;48.200;12.418;2023-04-29T01:39:13;96389.81;;;14.47;59.47
50977;BME280;36992;48.200;12.418;2023-04-29T01:41:44;96384.25;;;14.43;59.49
50977;BME280;36992;48.200;12.418;2023-04-29T01:44:14;96384.25;;;14.43;59.43
50977;BME280;36992;48.200;12.418;2023-04-29T01:46:42;96388.75;;;14.39;59.56
50977;BME280;36992;48.200;12.418;2023-04-29T01:49:09;96387.50;;;14.37;59.38
50977;BME280;36992;48.200;12.418;2023-04-29T01:51:36;96378.56;;;14.36;59.55
50977;BME280;36992;48.200;12.418;2023-04-29T01:54:02;96388.94;;;14.34;59.55
50977;BME280;36992;48.200;12.418;2023-04-29T01:56:30;96383.19;;;14.36;59.07
50977;BME280;36992;48.200;12.418;2023-04-29T01:58:57;96386.22;;;14.34;59.31
50977;BME280;36992;48.200;12.418;2023-04-29T02:01:23;96390.84;;;14.34;59.21
50977;BME280;36992;48.200;12.418;2023-04-29T02:03:50;96390.06;;;14.33;59.35
50977;BME280;36992;48.200;12.418;2023-04-29T02:06:16;96383.03;;;14.32;59.20
50977;BME280;36992;48.200;12.418;2023-04-29T02:08:43;96380.66;;;14.30;59.17
50977;BME280;36992;48.200;12.418;2023-04-29T02:11:09;96386.06;;;14.30;59.35
50977;BME280;36992;48.200;12.418;2023-04-29T02:13:37;96384.94;;;14.32;59.20
50977;BME280;36992;48.200;12.418;2023-04-29T02:16:07;96389.25;;;14.33;58.96
50977;BME280;36992;48.200;12.418;2023-04-29T02:18:33;96388.28;;;14.28;59.58
50977;BME280;36992;48.200;12.418;2023-04-29T02:21:00;96385.94;;;14.27;59.45
50977;BME280;36992;48.200;12.418;2023-04-29T02:23:27;96384.31;;;14.26;59.45
50977;BME280;36992;48.200;12.418;2023-04-29T02:25:53;96384.31;;;14.26;59.09
50977;BME280;36992;48.200;12.418;2023-04-29T02:28:20;96386.25;;;14.25;59.34
50977;BME280;36992;48.200;12.418;2023-04-29T02:30:49;96382.72;;;14.25;59.17
50977;BME280;36992;48.200;12.418;2023-04-29T02:33:15;96384.97;;;14.23;59.48
50977;BME280;36992;48.200;12.418;2023-04-29T02:35:42;96391.53;;;14.22;59.38
50977;BME280;36992;48.200;12.418;2023-04-29T02:38:09;96388.81;;;14.22;59.32
50977;BME280;36992;48.200;12.418;2023-04-29T02:40:40;96398.22;;;14.24;59.08
50977;BME280;36992;48.200;12.418;2023-04-29T02:43:06;96386.41;;;14.20;59.29
50977;BME280;36992;48.200;12.418;2023-04-29T02:45:33;96377.16;;;14.21;59.68
50977;BME280;36992;48.200;12.418;2023-04-29T02:48:01;96379.09;;;14.21;59.82
50977;BME280;36992;48.200;12.418;2023-04-29T02:50:28;96377.03;;;14.18;59.46
50977;BME280;36992;48.200;12.418;2023-04-29T02:52:55;96374.31;;;14.18;59.19
50977;BME280;36992;48.200;12.418;2023-04-29T02:55:22;96385.16;;;14.18;59.51
50977;BME280;36992;48.200;12.418;2023-04-29T02:57:48;96378.97;;;14.17;59.08
50977;BME280;36992;48.200;12.418;2023-04-29T03:00:15;96376.56;;;14.15;59.42
50977;BME280;36992;48.200;12.418;2023-04-29T03:02:41;96373.84;;;14.15;59.32
50977;BME280;36992;48.200;12.418;2023-04-29T03:05:09;96370.47;;;14.19;59.03
50977;BME280;36992;48.200;12.418;2023-04-29T03:07:36;96373.84;;;14.15;59.62
50977;BME280;36992;48.200;12.418;2023-04-29T03:10:03;96374.63;;;14.16;59.26
50977;BME280;36992;48.200;12.418;2023-04-29T03:12:30;96371.94;;;14.16;58.98
50977;BME280;36992;48.200;12.418;2023-04-29T03:14:56;96375.44;;;14.16;59.62
50977;BME280;36992;48.200;12.418;2023-04-29T03:17:23;96380.84;;;14.16;59.50
50977;BME280;36992;48.200;12.418;2023-04-29T03:19:49;96377.69;;;14.14;59.63
50977;BME280;36992;48.200;12.418;2023-04-29T03:22:18;96379.28;;;14.15;59.45
50977;BME280;36992;48.200;12.418;2023-04-29T03:24:45;96383.09;;;14.14;59.62
50977;BME280;36992;48.200;12.418;2023-04-29T03:27:11;96379.13;;;14.12;59.40
50977;BME280;36992;48.200;12.418;2023-04-29T03:29:38;96376.72;;;14.10;59.24
50977;BME280;36992;48.200;12.418;2023-04-29T03:32:04;96380.56;;;14.09;59.55
50977;BME280;36992;48.200;12.418;2023-04-29T03:34:31;96383.28;;;14.09;59.67
50977;BME280;36992;48.200;12.418;2023-04-29T03:36:58;96382.78;;;14.07;59.62
50977;BME280;36992;48.200;12.418;2023-04-29T03:39:26;96387.88;;;14.09;59.44
50977;BME280;36992;48.200;12.418;2023-04-29T03:41:56;96378.03;;;14.04;59.68
50977;BME280;36992;48.200;12.418;2023-04-29T03:44:23;96381.84;;;14.03;59.44
50977;BME280;36992;48.200;12.418;2023-04-29T03:46:50;96380.28;;;14.02;59.25
50977;BME280;36992;48.200;12.418;2023-04-29T03:49:16;96379.47;;;14.01;59.16
50977;BME280;36992;48.200;12.418;2023-04-29T03:51:43;96382.16;;;14.01;59.04
50977;BME280;36992;48.200;12.418;2023-04-29T03:54:10;96380.59;;;14.00;59.67
50977;BME280;36992;48.200;12.418;2023-04-29T03:56:38;96391.09;;;14.02;59.31
50977;BME280;36992;48.200;12.418;2023-04-29T03:59:05;96377.06;;;14.00;59.54
50977;BME280;36992;48.200;12.418;2023-04-29T04:01:31;96377.06;;;14.00;59.35
50977;BME280;36992;48.200;12.418;2023-04-29T04:03:58;96381.72;;;13.99;59.55
50977;BME280;36992;48.200;12.418;2023-04-29T04:06:25;96377.06;;;14.00;59.79
50977;BME280;36992;48.200;12.418;2023-04-29T04:08:51;96379.00;;;13.99;59.65
50977;BME280;36992;48.200;12.418;2023-04-29T04:11:18;96376.28;;;13.99;59.76
50977;BME280;36992;48.200;12.418;2023-04-29T04:13:45;96378.66;;;14.01;59.66
50977;BME280;36992;48.200;12.418;2023-04-29T04:16:14;96379.78;;;14.00;59.73
50977;BME280;36992;48.200;12.418;2023-04-29T04:18:41;96377.06;;;14.00;59.17
50977;BME280;36992;48.200;12.418;2023-04-29T04:21:08;96380.91;;;13.99;59.67
50977;BME280;36992;48.200;12.418;2023-04-29T04:23:35;96380.91;;;13.99;59.64
50977;BME280;36992;48.200;12.418;2023-04-29T04:26:04;96386.31;;;13.99;59.74
50977;BME280;36992;48.200;12.418;2023-04-29T04:28:31;96393.31;;;14.00;60.03
50977;BME280;36992;48.200;12.418;2023-04-29T04:30:58;96394.13;;;14.00;59.98
50977;BME280;36992;48.200;12.418;2023-04-29T04:33:25;96396.38;;;13.98;60.03
50977;BME280;36992;48.200;12.418;2023-04-29T04:35:51;96397.16;;;13.99;59.61
50977;BME280;36992;48.200;12.418;2023-04-29T04:38:18;96403.38;;;13.99;60.34
50977;BME280;36992;48.200;12.418;2023-04-29T04:40:44;96408.78;;;13.99;60.00
50977;BME280;36992;48.200;12.418;2023-04-29T04:43:11;96404.16;;;14.00;60.42
50977;BME280;36992;48.200;12.418;2023-04-29T04:45:37;96402.56;;;13.99;60.50
50977;BME280;36992;48.200;12.418;2023-04-29T04:48:05;96400.81;;;14.03;60.14
50977;BME280;36992;48.200;12.418;2023-04-29T04:50:32;96411.97;;;14.01;59.80
50977;BME280;36992;48.200;12.418;2023-04-29T04:52:58;96407.34;;;14.02;60.36
50977;BME280;36992;48.200;12.418;2023-04-29T04:55:25;96410.53;;;14.04;60.00
50977;BME280;36992;48.200;12.418;2023-04-29T04:57:51;96412.13;;;14.05;60.48
50977;BME280;36992;48.200;12.418;2023-04-29T05:00:18;96408.28;;;14.06;60.76
50977;BME280;36992;48.200;12.418;2023-04-29T05:02:44;96416.91;;;14.08;60.90
50977;BME280;36992;48.200;12.418;2023-04-29T05:05:12;96416.25;;;14.11;60.98
50977;BME280;36992;48.200;12.418;2023-04-29T05:07:38;96416.25;;;14.11;60.82
50977;BME280;36992;48.200;12.418;2023-04-29T05:10:06;96423.25;;;14.12;60.66
50977;BME280;36992;48.200;12.418;2023-04-29T05:12:32;96431.06;;;14.14;60.64
50977;BME280;36992;48.200;12.418;2023-04-29T05:14:59;96428.03;;;14.15;60.68
50977;BME280;36992;48.200;12.418;2023-04-29T05:17:26;96428.81;;;14.16;61.06
50977;BME280;36992;48.200;12.418;2023-04-29T05:19:52;96433.91;;;14.18;60.72
50977;BME280;36992;48.200;12.418;2023-04-29T05:22:20;96434.38;;;14.20;60.67
50977;BME280;36992;48.200;12.418;2023-04-29T05:24:46;96430.56;;;14.21;60.47
50977;BME280;36992;48.200;12.418;2023-04-29T05:27:13;96432.16;;;14.22;60.63
50977;BME280;36992;48.200;12.418;2023-04-29T05:29:40;96431.03;;;14.23;60.22
50977;BME280;36992;48.200;12.418;2023-04-29T05:32:06;96435.34;;;14.24;60.73
50977;BME280;36992;48.200;12.418;2023-04-29T05:34:33;96436.91;;;14.25;61.18
50977;BME280;36992;48.200;12.418;2023-04-29T05:36:59;96439.31;;;14.26;60.85
50977;BME280;36992;48.200;12.418;2023-04-29T05:39:27;96443.28;;;14.29;61.11
50977;BME280;36992;48.200;12.418;2023-04-29T05:41:54;96442.47;;;14.28;61.05
50977;BME280;36992;48.200;12.418;2023-04-29T05:44:21;96445.69;;;14.30;61.40
50977;BME280;36992;48.200;12.418;2023-04-29T05:46:47;96447.28;;;14.32;61.52
50977;BME280;36992;48.200;12.418;2023-04-29T05:49:15;96456.66;;;14.34;61.45
50977;BME280;36992;48.200;12.418;2023-04-29T05:51:42;96456.00;;;14.37;61.34
50977;BME280;36992;48.200;12.418;2023-04-29T05:54:08;96452.19;;;14.38;61.93
50977;BME280;36992;48.200;12.418;2023-04-29T05:56:36;96458.22;;;14.44;61.59
50977;BME280;36992;48.200;12.418;2023-04-29T05:59:03;96452.50;;;14.46;61.54
50977;BME280;36992;48.200;12.418;2023-04-29T06:01:29;96461.09;;;14.48;62.24
50977;BME280;36992;48.200;12.418;2023-04-29T06:03:57;96459.34;;;14.52;62.27
50977;BME280;36992;48.200;12.418;2023-04-29T06:06:23;96454.38;;;14.54;61.97
50977;BME280;36992;48.200;12.418;2023-04-29T06:08:50;96461.06;;;14.56;62.27
50977;BME280;36992;48.200;12.418;2023-04-29T06:11:17;96453.06;;;14.60;62.03
50977;BME280;36992;48.200;12.418;2023-04-29T06:13:45;96466.47;;;14.65;61.61
50977;BME280;36992;48.200;12.418;2023-04-29T06:16:11;96466.47;;;14.65;61.67
50977;BME280;36992;48.200;12.418;2023-04-29T06:18:38;96471.22;;;14.68;62.03
50977;BME280;36992;48.200;12.418;2023-04-29T06:21:05;96472.16;;;14.73;62.42
50977;BME280;36992;48.200;12.418;2023-04-29T06:23:32;96476.94;;;14.76;62.35
50977;BME280;36992;48.200;12.418;2023-04-29T06:25:58;96470.91;;;14.79;62.59
50977;BME280;36992;48.200;12.418;2023-04-29T06:28:25;96473.75;;;14.82;62.24
50977;BME280;36992;48.200;12.418;2023-04-29T06:30:53;96477.41;;;14.87;62.60
50977;BME280;36992;48.200;12.418;2023-04-29T06:33:19;96480.25;;;14.90;62.71
50977;BME280;36992;48.200;12.418;2023-04-29T06:35:46;96483.91;;;14.94;63.71
50977;BME280;36992;48.200;12.418;2023-04-29T06:38:12;96477.84;;;14.97;63.44
50977;BME280;36992;48.200;12.418;2023-04-29T06:40:39;96483.06;;;15.03;63.38
50977;BME280;36992;48.200;12.418;2023-04-29T06:43:05;96473.94;;;15.07;63.32
50977;BME280;36992;48.200;12.418;2023-04-29T06:45:32;96481.09;;;15.12;63.74
50977;BME280;36992;48.200;12.418;2023-04-29T06:48:00;96487.94;;;15.18;63.73
50977;BME280;36992;48.200;12.418;2023-04-29T06:50:26;96490.00;;;15.21;63.20
50977;BME280;36992;48.200;12.418;2023-04-29T06:52:53;96484.41;;;15.27;63.75
50977;BME280;36992;48.200;12.418;2023-04-29T06:55:19;96488.03;;;15.31;63.33
50977;BME280;36992;48.200;12.418;2023-04-29T06:57:46;96490.53;;;15.36;64.02
50977;BME280;36992;48.200;12.418;2023-04-29T07:00:13;96487.19;;;15.39;63.82
50977;BME280;36992;48.200;12.418;2023-04-29T07:02:40;96493.66;;;15.47;62.34
50977;BME280;36992;48.200;12.418;2023-04-29T07:05:08;96483.06;;;15.54;62.40
50977;BME280;36992;48.200;12.418;2023-04-29T07:07:35;96486.41;;;15.60;63.08
50977;BME280;36992;48.200;12.418;2023-04-29T07:10:01;96499.13;;;15.68;61.94
50977;BME280;36992;48.200;12.418;2023-04-29T07:12:28;96495.56;;;15.76;62.80
50977;BME280;36992;48.200;12.418;2023-04-29T07:14:54;96497.41;;;15.85;61.41
50977;BME280;36992;48.200;12.418;2023-04-29T07:17:22;96494.97;;;15.92;61.25
50977;BME280;36992;48.200;12.418;2023-04-29T07:19:48;96501.78;;;15.98;61.34
50977;BME280;36992;48.200;12.418;2023-04-29T07:22:16;96508.16;;;16.02;60.37
50977;BME280;36992;48.200;12.418;2023-04-29T07:24:43;96493.69;;;16.11;60.41
50977;BME280;36992;48.200;12.418;2023-04-29T07:27:10;96489.97;;;16.15;61.52
50977;BME280;36992;48.200;12.418;2023-04-29T07:29:36;96497.25;;;16.24;60.59
50977;BME280;36992;48.200;12.418;2023-04-29T07:32:04;96495.13;;;16.29;59.10
50977;BME280;36992;48.200;12.418;2023-04-29T07:34:31;96497.63;;;16.35;59.13
50977;BME280;36992;48.200;12.418;2023-04-29T07:36:57;96500.28;;;16.43;58.89
50977;BME280;36992;48.200;12.418;2023-04-29T07:39:25;96495.41;;;16.49;59.49
50977;BME280;36992;48.200;12.418;2023-04-29T07:41:53;96502.53;;;16.54;58.11
50977;BME280;36992;48.200;12.418;2023-04-29T07:44:19;96503.13;;;16.59;58.14
50977;BME280;36992;48.200;12.418;2023-04-29T07:46:46;96503.38;;;16.67;58.08
50977;BME280;36992;48.200;12.418;2023-04-29T07:49:12;96508.59;;;16.72;58.03
50977;BME280;36992;48.200;12.418;2023-04-29T07:51:40;96516.19;;;16.79;57.92
50977;BME280;36992;48.200;12.418;2023-04-29T07:54:07;96505.56;;;16.86;56.75
50977;BME280;36992;48.200;12.418;2023-04-29T07:56:34;96517.94;;;16.96;57.41
50977;BME280;36992;48.200;12.418;2023-04-29T07:59:01;96519.97;;;16.99;55.65
50977;BME280;36992;48.200;12.418;2023-04-29T08:01:28;96513.06;;;17.02;56.57
50977;BME280;36992;48.200;12.418;2023-04-29T08:03:54;96517.50;;;17.06;57.14
50977;BME280;36992;48.200;12.418;2023-04-29T08:06:21;96521.25;;;17.14;55.84
50977;BME280;36992;48.200;12.418;2023-04-29T08:08:48;96519.88;;;17.20;55.75
50977;BME280;36992;48.200;12.418;2023-04-29T08:11:15;96516.13;;;17.25;54.70
50977;BME280;36992;48.200;12.418;2023-04-29T08:13:44;96517.06;;;17.29;53.63
50977;BME280;36992;48.200;12.418;2023-04-29T08:16:11;96523.28;;;17.30;53.72
50977;BME280;36992;48.200;12.418;2023-04-29T08:18:38;96537.34;;;17.32;54.19
50977;BME280;36992;48.200;12.418;2023-04-29T08:21:05;96532.03;;;17.35;53.66
50977;BME280;36992;48.200;12.418;2023-04-29T08:23:32;96525.88;;;17.38;53.53
50977;BME280;36992;48.200;12.418;2023-04-29T08:25:59;96525.22;;;17.42;53.45
50977;BME280;36992;48.200;12.418;2023-04-29T08:28:27;96517.97;;;17.46;53.43
50977;BME280;36992;48.200;12.418;2023-04-29T08:30:55;96523.16;;;17.51;53.31
50977;BME280;36992;48.200;12.418;2023-04-29T08:33:22;96523.63;;;17.53;54.13
50977;BME280;36992;48.200;12.418;2023-04-29T08:35:48;96537.00;;;17.58;53.20
50977;BME280;36992;48.200;12.418;2023-04-29T08:38:22;96528.84;;;17.58;52.70
50977;BME280;36992;48.200;12.418;2023-04-29T08:40:49;96532.09;;;17.64;52.25
50977;BME280;36992;48.200;12.418;2023-04-29T08:43:16;96539.25;;;17.69;53.20
50977;BME280;36992;48.200;12.418;2023-04-29T08:45:44;96536.28;;;17.74;52.40
50977;BME280;36992;48.200;12.418;2023-04-29T08:48:15;96543.53;;;17.82;52.41
50977;BME280;36992;48.200;12.418;2023-04-29T08:50:42;96544.22;;;17.79;50.55
50977;BME280;36992;48.200;12.418;2023-04-29T08:53:10;96544.44;;;17.86;51.95
50977;BME280;36992;48.200;12.418;2023-04-29T08:55:41;96538.41;;;17.93;52.39
50977;BME280;36992;48.200;12.418;2023-04-29T08:58:08;96543.16;;;17.96;52.92
50977;BME280;36992;48.200;12.418;2023-04-29T09:00:35;96546.47;;;18.02;53.16
50977;BME280;36992;48.200;12.418;2023-04-29T09:03:11;96547.47;;;18.10;52.83
50977;BME280;36992;48.200;12.418;2023-04-29T09:05:41;96543.59;;;18.11;52.17
50977;BME280;36992;48.200;12.418;2023-04-29T09:08:10;96539.06;;;18.15;52.62
50977;BME280;36992;48.200;12.418;2023-04-29T09:10:38;96548.47;;;18.17;52.23
50977;BME280;36992;48.200;12.418;2023-04-29T09:13:07;96540.06;;;18.23;50.29
50977;BME280;36992;48.200;12.418;2023-04-29T09:15:35;96543.22;;;18.25;50.97
50977;BME280;36992;48.200;12.418;2023-04-29T09:18:02;96541.38;;;18.29;50.86
50977;BME280;36992;48.200;12.418;2023-04-29T09:20:29;96546.50;;;18.30;50.73
50977;BME280;36992;48.200;12.418;2023-04-29T09:22:58;96534.56;;;18.35;50.78
50977;BME280;36992;48.200;12.418;2023-04-29T09:25:25;96531.81;;;18.35;50.49
50977;BME280;36992;48.200;12.418;2023-04-29T09:27:52;96528.84;;;18.40;50.25
50977;BME280;36992;48.200;12.418;2023-04-29T09:30:19;96528.13;;;18.43;50.90
50977;BME280;36992;48.200;12.418;2023-04-29T09:33:03;96529.03;;;18.47;49.75
50977;BME280;36992;48.200;12.418;2023-04-29T09:35:29;96525.16;;;18.49;50.10
50977;BME280;36992;48.200;12.418;2023-04-29T09:38:09;96512.84;;;18.55;49.88
50977;BME280;36992;48.200;12.418;2023-04-29T09:40:37;96528.31;;;18.51;49.14
50977;BME280;36992;48.200;12.418;2023-04-29T09:43:11;96520.78;;;18.60;50.35
50977;BME280;36992;48.200;12.418;2023-04-29T09:45:40;96522.38;;;18.61;48.69
50977;BME280;36992;48.200;12.418;2023-04-29T09:48:08;96524.84;;;18.66;49.49
50977;BME280;36992;48.200;12.418;2023-04-29T09:50:35;96519.41;;;18.66;48.95
50977;BME280;36992;48.200;12.418;2023-04-29T09:53:03;96515.69;;;18.74;48.01
50977;BME280;36992;48.200;12.418;2023-04-29T09:55:31;96519.31;;;18.79;48.91
50977;BME280;36992;48.200;12.418;2023-04-29T09:57:57;96527.25;;;18.84;49.24
50977;BME280;36992;48.200;12.418;2023-04-29T10:00:29;96527.09;;;18.93;49.50
50977;BME280;36992;48.200;12.418;2023-04-29T10:02:58;96518.09;;;18.92;48.64
50977;BME280;36992;48.200;12.418;2023-04-29T10:05:27;96519.41;;;18.98;49.15
50977;BME280;36992;48.200;12.418;2023-04-29T10:07:54;96516.34;;;19.00;47.71
50977;BME280;36992;48.200;12.418;2023-04-29T10:10:22;96520.84;;;19.08;47.63
50977;BME280;36992;48.200;12.418;2023-04-29T10:12:52;96513.97;;;19.14;48.39
50977;BME280;36992;48.200;12.418;2023-04-29T10:15:24;96515.22;;;19.17;48.97
50977;BME280;36992;48.200;12.418;2023-04-29T10:17:54;96509.41;;;19.19;48.63
50977;BME280;36992;48.200;12.418;2023-04-29T10:20:24;96512.47;;;19.17;48.07
50977;BME280;36992;48.200;12.418;2023-04-29T10:22:51;96509.31;;;19.15;48.94
50977;BME280;36992;48.200;12.418;2023-04-29T10:25:20;96504.22;;;19.13;48.70
50977;BME280;36992;48.200;12.418;2023-04-29T10:27:48;96497.50;;;19.11;48.77
50977;BME280;36992;48.200;12.418;2023-04-29T10:30:19;96495.66;;;19.15;49.78
50977;BME280;36992;48.200;12.418;2023-04-29T10:32:47;96495.22;;;19.13;49.22
50977;BME280;36992;48.200;12.418;2023-04-29T10:35:15;96505.44;;;19.16;49.69
50977;BME280;36992;48.200;12.418;2023-04-29T10:37:44;96503.56;;;19.20;48.06
50977;BME280;36992;48.200;12.418;2023-04-29T10:40:14;96500.22;;;19.27;48.81
50977;BME280;36992;48.200;12.418;2023-04-29T10:42:44;96502.25;;;19.30;48.09
50977;BME280;36992;48.200;12.418;2023-04-29T10:45:22;96490.41;;;19.42;48.63
50977;BME280;36992;48.200;12.418;2023-04-29T10:48:10;96493.38;;;19.53;49.00
50977;BME280;36992;48.200;12.418;2023-04-29T10:50:59;96489.56;;;19.58;48.09
50977;BME280;36992;48.200;12.418;2023-04-29T10:53:27;96485.53;;;19.51;46.59
50977;BME280;36992;48.200;12.418;2023-04-29T10:55:56;96486.84;;;19.58;47.07
50977;BME280;36992;48.200;12.418;2023-04-29T10:58:43;96480.34;;;19.62;46.62
50977;BME280;36992;48.200;12.418;2023-04-29T11:01:13;96479.53;;;19.62;45.77
50977;BME280;36992;48.200;12.418;2023-04-29T11:03:50;96487.38;;;19.63;46.33
50977;BME280;36992;48.200;12.418;2023-04-29T11:06:19;96479.53;;;19.62;45.31
50977;BME280;36992;48.200;12.418;2023-04-29T11:08:46;96478.81;;;19.65;45.99
50977;BME280;36992;48.200;12.418;2023-04-29T11:11:12;96487.78;;;19.65;45.51
50977;BME280;36992;48.200;12.418;2023-04-29T11:13:39;96488.59;;;19.66;45.64
50977;BME280;36992;48.200;12.418;2023-04-29T11:16:07;96502.25;;;19.66;45.77
50977;BME280;36992;48.200;12.418;2023-04-29T11:18:36;96496.06;;;19.69;47.64
50977;BME280;36992;48.200;12.418;2023-04-29T11:21:11;96500.38;;;19.70;47.95
50977;BME280;36992;48.200;12.418;2023-04-29T11:23:39;96497.06;;;19.61;46.11
50977;BME280;36992;48.200;12.418;2023-04-29T11:26:06;96496.72;;;19.62;45.59
50977;BME280;36992;48.200;12.418;2023-04-29T11:28:33;96495.50;;;19.60;45.54
50977;BME280;36992;48.200;12.418;2023-04-29T11:31:00;96492.69;;;19.56;46.08
50977;BME280;36992;48.200;12.418;2023-04-29T11:33:31;96493.47;;;19.57;46.03
50977;BME280;36992;48.200;12.418;2023-04-29T11:35:59;96498.94;;;19.57;45.06
50977;BME280;36992;48.200;12.418;2023-04-29T11:38:26;96491.88;;;19.55;44.49
50977;BME280;36992;48.200;12.418;2023-04-29T11:40:54;96500.06;;;19.55;45.13
50977;BME280;36992;48.200;12.418;2023-04-29T11:43:21;96482.53;;;19.57;45.25
50977;BME280;36992;48.200;12.418;2023-04-29T11:45:48;96487.31;;;19.60;45.53
50977;BME280;36992;48.200;12.418;2023-04-29T11:48:18;96477.22;;;19.64;44.80
50977;BME280;36992;48.200;12.418;2023-04-29T11:50:46;96482.69;;;19.64;43.84
50977;BME280;36992;48.200;12.418;2023-04-29T11:53:15;96483.91;;;19.66;44.60
50977;BME280;36992;48.200;12.418;2023-04-29T11:55:42;96481.63;;;19.68;43.83
50977;BME280;36992;48.200;12.418;2023-04-29T11:58:08;96484.88;;;19.74;43.43
50977;BME280;36992;48.200;12.418;2023-04-29T12:00:35;96490.84;;;19.80;43.21
50977;BME280;36992;48.200;12.418;2023-04-29T12:03:06;96480.06;;;19.87;43.74
50977;BME280;36992;48.200;12.418;2023-04-29T12:05:33;96486.38;;;19.91;42.97
50977;BME280;36992;48.200;12.418;2023-04-29T12:08:00;96484.19;;;19.97;42.53
50977;BME280;36992;48.200;12.418;2023-04-29T12:10:29;96469.56;;;20.09;43.34
50977;BME280;36992;48.200;12.418;2023-04-29T12:12:55;96466.13;;;20.12;41.87
50977;BME280;36992;48.200;12.418;2023-04-29T12:15:23;96472.09;;;20.18;40.18
50977;BME280;36992;48.200;12.418;2023-04-29T12:17:50;96480.44;;;20.25;41.41
50977;BME280;36992;48.200;12.418;2023-04-29T12:20:16;96451.22;;;20.29;39.46
50977;BME280;36992;48.200;12.418;2023-04-29T12:22:43;96466.16;;;20.35;40.42
50977;BME280;36992;48.200;12.418;2023-04-29T12:25:10;96456.88;;;20.40;40.59
50977;BME280;36992;48.200;12.418;2023-04-29T12:27:39;96443.69;;;20.46;40.19
50977;BME280;36992;48.200;12.418;2023-04-29T12:30:07;96451.59;;;20.51;39.93
50977;BME280;36992;48.200;12.418;2023-04-29T12:32:34;96459.56;;;20.60;39.36
50977;BME280;36992;48.200;12.418;2023-04-29T12:35:01;96456.16;;;20.67;38.25
50977;BME280;36992;48.200;12.418;2023-04-29T12:37:27;96455.13;;;20.75;39.05
50977;BME280;36992;48.200;12.418;2023-04-29T12:39:54;96461.50;;;20.83;37.70
50977;BME280;36992;48.200;12.418;2023-04-29T12:42:21;96464.38;;;20.90;36.22
50977;BME280;36992;48.200;12.418;2023-04-29T12:44:48;96462.91;;;20.96;36.58
50977;BME280;36992;48.200;12.418;2023-04-29T12:47:15;96461.00;;;20.97;36.17
50977;BME280;36992;48.200;12.418;2023-04-29T12:49:43;96452.38;;;20.98;36.29
50977;BME280;36992;48.200;12.418;2023-04-29T12:52:10;96469.72;;;21.06;36.29
50977;BME280;36992;48.200;12.418;2023-04-29T12:54:36;96470.16;;;21.08;37.91